createdAt,value
2023-05-04T00:02:18.916Z,7.53
2023-05-04T00:05:44.083Z,7.5
2023-05-04T00:09:09.331Z,7.45
2023-05-04T00:12:34.630Z,7.41
2023-05-04T00:15:59.782Z,7.4
2023-05-04T00:19:25.016Z,7.37
2023-05-04T00:22:50.251Z,7.36
2023-05-04T00:26:15.481Z,7.34
2023-05-04T00:29:40.760Z,7.33
2023-05-04T00:33:06.052Z,7.3
2023-05-04T00:36:31.232Z,7.31
2023-05-04T00:39:56.457Z,7.33
2023-05-04T00:43:21.671Z,7.34
2023-05-04T00:46:47.002Z,7.31
2023-05-04T00:50:12.170Z,7.32
2023-05-04T00:53:37.387Z,7.32
2023-05-04T00:57:02.621Z,7.32
2023-05-04T01:00:27.828Z,7.32
2023-05-04T01:03:53.131Z,7.34
2023-05-04T01:07:18.251Z,7.34
2023-05-04T01:10:43.486Z,7.33
2023-05-04T01:14:08.682Z,7.31
2023-05-04T01:17:33.942Z,7.32
2023-05-04T01:20:59.213Z,7.33
2023-05-04T01:24:24.388Z,7.36
2023-05-04T01:27:49.657Z,7.39
2023-05-04T01:31:14.866Z,7.4
2023-05-04T01:34:40.056Z,7.41
2023-05-04T01:38:05.283Z,7.39
2023-05-04T01:41:30.450Z,7.35
2023-05-04T01:44:55.693Z,7.34
2023-05-04T01:48:20.885Z,7.32
2023-05-04T01:51:46.125Z,7.3
2023-05-04T01:55:11.424Z,7.26
2023-05-04T01:58:36.641Z,7.25
2023-05-04T02:02:01.927Z,7.27
2023-05-04T02:05:27.115Z,7.31
2023-05-04T02:08:52.322Z,7.33
2023-05-04T02:12:17.551Z,7.31
2023-05-04T02:15:42.764Z,7.34
2023-05-04T02:19:07.935Z,7.38
2023-05-04T02:22:33.119Z,7.4
2023-05-04T02:25:58.417Z,7.41
2023-05-04T02:29:23.805Z,7.4
2023-05-04T02:32:49.025Z,7.42
2023-05-04T02:36:14.261Z,7.45
2023-05-04T02:39:39.466Z,7.47
2023-05-04T02:43:04.770Z,7.5
2023-05-04T02:46:30.012Z,7.49
2023-05-04T02:49:55.176Z,7.5
2023-05-04T02:53:20.432Z,7.54
2023-05-04T02:56:45.668Z,7.57
2023-05-04T03:00:10.899Z,7.59
2023-05-04T03:03:36.151Z,7.61
2023-05-04T03:07:01.343Z,7.61
2023-05-04T03:10:26.570Z,7.64
2023-05-04T03:13:51.774Z,7.63
2023-05-04T03:17:17.018Z,7.62
2023-05-04T03:20:42.297Z,7.61
2023-05-04T03:24:07.475Z,7.62
2023-05-04T03:27:32.641Z,7.63
2023-05-04T03:30:57.858Z,7.63
2023-05-04T03:34:23.061Z,7.64
2023-05-04T03:37:48.488Z,7.65
2023-05-04T03:41:13.669Z,7.68
2023-05-04T03:44:38.886Z,7.7
2023-05-04T03:48:04.211Z,7.7
2023-05-04T03:51:29.364Z,7.75
2023-05-04T03:54:54.608Z,7.76
2023-05-04T03:58:20.746Z,7.77
2023-05-04T04:01:46.011Z,7.78
2023-05-04T04:05:11.264Z,7.79
2023-05-04T04:08:36.474Z,7.82
2023-05-04T04:12:01.739Z,7.87
2023-05-04T04:15:26.938Z,7.93
2023-05-04T04:18:52.178Z,7.97
2023-05-04T04:22:17.399Z,8
2023-05-04T04:25:44.508Z,8.04
2023-05-04T04:29:07.847Z,8.09
2023-05-04T04:32:32.985Z,8.18
2023-05-04T04:35:58.180Z,8.27
2023-05-04T04:39:23.407Z,8.38
2023-05-04T04:42:48.616Z,8.5
2023-05-04T04:46:13.916Z,8.67
2023-05-04T04:49:39.028Z,8.84
2023-05-04T04:53:04.261Z,9.04
2023-05-04T04:56:29.453Z,9.22
2023-05-04T04:59:54.672Z,9.44
2023-05-04T05:03:19.988Z,9.61
2023-05-04T05:06:45.226Z,9.78
2023-05-04T05:10:10.444Z,9.95
2023-05-04T05:13:35.657Z,10.09
2023-05-04T05:17:01.037Z,10.18
2023-05-04T05:20:26.112Z,10.28
2023-05-04T05:23:51.306Z,10.39
2023-05-04T05:27:16.498Z,10.51
2023-05-04T05:30:41.721Z,10.62
2023-05-04T05:34:06.904Z,10.7
2023-05-04T05:37:32.238Z,10.8
2023-05-04T05:40:57.310Z,10.91
2023-05-04T05:44:22.526Z,11
2023-05-04T05:47:47.790Z,11.1
2023-05-04T05:51:12.993Z,11.22
2023-05-04T05:54:38.211Z,11.38
2023-05-04T05:58:03.413Z,11.55
2023-05-04T06:01:28.848Z,11.73
2023-05-04T06:04:53.947Z,11.88
2023-05-04T06:08:19.029Z,12.03
2023-05-04T06:11:44.242Z,12.22
2023-05-04T06:15:09.427Z,12.43
2023-05-04T06:18:34.619Z,12.68
2023-05-04T06:21:59.831Z,12.86
2023-05-04T06:25:25.094Z,13.05
2023-05-04T06:28:50.287Z,13.24
2023-05-04T06:32:15.506Z,13.47
2023-05-04T06:35:40.707Z,13.58
2023-05-04T06:39:05.911Z,13.63
2023-05-04T06:42:31.153Z,13.68
2023-05-04T06:45:56.400Z,13.7
2023-05-04T06:49:21.571Z,13.69
2023-05-04T06:52:46.754Z,13.72
2023-05-04T06:56:12.006Z,13.79
2023-05-04T06:59:37.173Z,13.89
2023-05-04T07:03:02.565Z,13.99
2023-05-04T07:06:27.610Z,14.11
2023-05-04T07:09:52.839Z,14.19
2023-05-04T07:13:18.065Z,14.23
2023-05-04T07:16:43.437Z,14.28
2023-05-04T07:20:08.710Z,14.33
2023-05-04T07:23:33.736Z,14.47
2023-05-04T07:26:58.952Z,14.61
2023-05-04T07:30:24.173Z,14.74
2023-05-04T07:33:49.420Z,14.84
2023-05-04T07:37:14.730Z,14.93
2023-05-04T07:40:39.904Z,15.09
2023-05-04T07:44:05.128Z,15.25
2023-05-04T07:47:30.405Z,15.45
2023-05-04T07:50:55.625Z,15.58
2023-05-04T07:54:22.776Z,15.71
2023-05-04T07:57:46.121Z,15.86
2023-05-04T08:01:11.345Z,16.030001
2023-05-04T08:04:36.584Z,16.18
2023-05-04T08:08:01.838Z,16.309999
2023-05-04T08:11:27.075Z,16.450001
2023-05-04T08:14:52.291Z,16.639999
2023-05-04T08:18:17.489Z,16.76
2023-05-04T08:21:42.735Z,16.82
2023-05-04T08:25:08.197Z,16.860001
2023-05-04T08:28:33.225Z,16.969999
2023-05-04T08:31:58.502Z,17.08
2023-05-04T08:35:23.649Z,17.17
2023-05-04T08:38:48.882Z,17.280001
2023-05-04T08:42:14.156Z,17.360001
2023-05-04T08:45:39.504Z,17.440001
2023-05-04T08:49:04.557Z,17.57
2023-05-04T08:52:29.795Z,17.690001
2023-05-04T08:55:55.043Z,17.799999
2023-05-04T08:59:20.283Z,17.83
2023-05-04T09:02:45.580Z,17.889999
2023-05-04T09:06:10.732Z,17.98
2023-05-04T09:09:35.938Z,18.07
2023-05-04T09:13:01.232Z,18.16
2023-05-04T09:16:26.391Z,18.18
2023-05-04T09:19:51.660Z,18.23
2023-05-04T09:23:16.923Z,18.34
2023-05-04T09:26:42.190Z,18.440001
2023-05-04T09:30:07.463Z,18.549999
2023-05-04T09:33:32.660Z,18.66
2023-05-04T09:36:57.880Z,18.73
2023-05-04T09:40:23.079Z,18.75
2023-05-04T09:43:48.319Z,18.780001
2023-05-04T09:47:13.520Z,18.91
2023-05-04T09:50:38.715Z,19.01
2023-05-04T09:54:03.971Z,19.07
2023-05-04T09:57:29.135Z,19.139999
2023-05-04T10:00:54.380Z,19.25
2023-05-04T10:04:19.575Z,19.25
2023-05-04T10:07:44.811Z,19.15
2023-05-04T10:11:10.042Z,19.18
2023-05-04T10:14:35.230Z,19.33
2023-05-04T10:18:00.465Z,19.360001
2023-05-04T10:21:25.650Z,19.5
2023-05-04T10:24:50.870Z,19.6
2023-05-04T10:28:16.118Z,19.700001
2023-05-04T10:31:41.318Z,19.799999
2023-05-04T10:35:06.754Z,19.969999
2023-05-04T10:38:31.730Z,20.09
2023-05-04T10:41:56.957Z,20.120001
2023-05-04T10:45:22.343Z,20.200001
2023-05-04T10:48:47.405Z,20.27
2023-05-04T10:52:12.606Z,20.32
2023-05-04T10:55:37.793Z,20.299999
2023-05-04T10:59:03.031Z,20.41
2023-05-04T11:02:29.315Z,20.530001
2023-05-04T11:05:53.452Z,20.540001
2023-05-04T11:09:18.643Z,20.549999
2023-05-04T11:12:43.884Z,20.629999
2023-05-04T11:16:09.161Z,20.790001
2023-05-04T11:19:34.285Z,20.93
2023-05-04T11:22:59.470Z,20.889999
2023-05-04T11:26:24.669Z,20.91
2023-05-04T11:29:49.873Z,20.98
2023-05-04T11:33:15.111Z,21
2023-05-04T11:36:40.575Z,21.040001
2023-05-04T11:40:05.671Z,21.120001
2023-05-04T11:43:30.891Z,21.16
2023-05-04T11:46:56.132Z,21.17
2023-05-04T11:50:21.330Z,21.120001
2023-05-04T11:53:46.744Z,21.09
2023-05-04T11:57:11.801Z,21.120001
2023-05-04T12:00:37.014Z,21.18
2023-05-04T12:04:02.303Z,21.23
2023-05-04T12:07:27.505Z,21.059999
2023-05-04T12:10:52.782Z,20.940001
2023-05-04T12:14:17.948Z,21.02
2023-05-04T12:17:43.201Z,21.1
2023-05-04T12:21:08.386Z,21.200001
2023-05-04T12:24:33.569Z,21.290001
2023-05-04T12:27:58.857Z,21.35
2023-05-04T12:31:25.197Z,21.440001
2023-05-04T12:34:49.168Z,21.49
2023-05-04T12:38:14.375Z,21.459999
2023-05-04T12:41:39.571Z,21.33
2023-05-04T12:45:04.919Z,21.299999
2023-05-04T12:48:29.984Z,21.32
2023-05-04T12:51:55.201Z,21.309999
2023-05-04T12:55:20.449Z,21.290001
2023-05-04T12:58:45.665Z,21.33
2023-05-04T13:02:10.916Z,21.32
2023-05-04T13:05:36.114Z,21.32
2023-05-04T13:09:01.393Z,21.280001
2023-05-04T13:12:26.600Z,21.139999
2023-05-04T13:15:51.900Z,21.09
2023-05-04T13:19:17.078Z,21.120001
2023-05-04T13:22:42.373Z,21.209999
2023-05-04T13:26:07.624Z,21.27
2023-05-04T13:29:32.838Z,21.27
2023-05-04T13:32:58.157Z,21.24
2023-05-04T13:36:23.391Z,21.200001
2023-05-04T13:39:48.539Z,21.18
2023-05-04T13:43:13.729Z,21.16
2023-05-04T13:46:38.936Z,21.15
2023-05-04T13:50:04.123Z,21.1
2023-05-04T13:53:29.426Z,21.1
2023-05-04T13:56:54.670Z,21.049999
2023-05-04T14:00:19.866Z,21.030001
2023-05-04T14:03:45.055Z,21.040001
2023-05-04T14:07:17.302Z,21.059999
2023-05-04T14:10:42.521Z,21.110001
2023-05-04T14:14:34.169Z,21.18
2023-05-04T14:17:59.359Z,21.209999
2023-05-04T14:21:25.224Z,21.200001
2023-05-04T14:24:50.442Z,21.24
2023-05-04T14:28:16.505Z,21.190001
2023-05-04T14:31:41.787Z,21.15
2023-05-04T14:35:07.221Z,21.129999
2023-05-04T14:38:32.290Z,21.1
2023-05-04T14:41:57.483Z,21.049999
2023-05-04T14:45:22.721Z,20.969999
2023-05-04T14:48:47.909Z,20.91
2023-05-04T14:52:13.174Z,20.860001
2023-05-04T14:55:38.483Z,20.83
2023-05-04T14:59:03.709Z,20.74
2023-05-04T15:02:29.016Z,20.73
2023-05-04T15:05:54.149Z,20.690001
2023-05-04T15:39:56.683Z,18.25
2023-05-04T15:43:21.902Z,19.17
2023-05-04T15:46:47.302Z,19.34
2023-05-04T15:50:12.524Z,19.5
2023-05-04T15:53:37.804Z,19.67
2023-05-04T15:57:03.090Z,19.82
2023-05-04T16:00:28.311Z,19.93
2023-05-04T16:03:53.593Z,20.01
2023-05-04T16:07:18.851Z,20.09
2023-05-04T16:10:44.080Z,20.129999
2023-05-04T16:14:09.320Z,20.129999
2023-05-04T16:17:34.567Z,20.129999
2023-05-04T16:20:59.768Z,20.110001
2023-05-04T16:24:25.019Z,20.07
2023-05-04T16:27:50.273Z,20.040001
2023-05-04T16:31:15.789Z,20.030001
2023-05-04T16:34:40.718Z,19.99
2023-05-04T16:38:05.926Z,19.959999
2023-05-04T16:41:31.144Z,19.92
2023-05-04T16:44:56.351Z,19.860001
2023-05-04T16:48:21.605Z,19.83
2023-05-04T16:51:46.773Z,19.790001
2023-05-04T16:55:12.642Z,19.73
2023-05-04T16:58:37.318Z,19.690001
2023-05-04T17:02:02.640Z,19.629999
2023-05-04T17:05:27.943Z,19.6
2023-05-04T17:08:53.207Z,19.530001
2023-05-04T17:12:18.490Z,19.459999
2023-05-04T17:15:44.690Z,19.389999
2023-05-04T17:19:11.122Z,19.33
2023-05-04T17:22:35.260Z,19.26
2023-05-04T17:26:00.473Z,19.139999
2023-05-04T17:29:25.738Z,19.01
2023-05-04T17:32:51.000Z,18.809999
2023-05-04T17:36:16.153Z,18.620001
2023-05-04T17:39:41.446Z,18.450001
2023-05-04T17:43:06.651Z,18.33
2023-05-04T17:46:31.985Z,18.200001
2023-05-04T17:49:57.132Z,18.07
2023-05-04T17:53:22.388Z,17.940001
2023-05-04T17:56:47.621Z,17.76
2023-05-04T18:00:12.837Z,17.59
2023-05-04T18:03:38.267Z,17.440001
2023-05-04T18:07:03.340Z,17.309999
2023-05-04T18:10:28.567Z,17.16
2023-05-04T18:13:53.796Z,16.98
2023-05-04T18:17:19.001Z,16.809999
2023-05-04T18:20:44.213Z,16.639999
2023-05-04T18:24:09.425Z,16.469999
2023-05-04T18:27:34.656Z,16.299999
2023-05-04T18:30:59.882Z,16.09
2023-05-04T18:34:25.158Z,15.92
2023-05-04T18:37:50.428Z,15.78
2023-05-04T18:41:15.659Z,15.59
2023-05-04T18:44:40.865Z,15.39
2023-05-04T18:48:06.255Z,15.22
2023-05-04T18:51:31.414Z,15.1
2023-05-04T18:54:56.625Z,14.96
2023-05-04T18:58:21.892Z,14.83
2023-05-04T19:01:47.107Z,14.72
2023-05-04T19:05:14.567Z,14.59
2023-05-04T19:08:37.600Z,14.47
2023-05-04T19:12:02.834Z,14.34
2023-05-04T19:15:28.163Z,14.22
2023-05-04T19:18:53.286Z,14.13
2023-05-04T19:22:18.572Z,14.02
2023-05-04T19:25:43.785Z,13.89
2023-05-04T19:29:08.997Z,13.8
2023-05-04T19:32:34.261Z,13.73
2023-05-04T19:35:59.496Z,13.66
2023-05-04T19:39:24.783Z,13.63
2023-05-04T19:42:49.966Z,13.62
2023-05-04T19:46:15.251Z,13.63
2023-05-04T19:49:40.496Z,13.62
2023-05-04T19:53:05.709Z,13.56
2023-05-04T19:56:30.937Z,13.45
2023-05-04T19:59:56.115Z,13.34
2023-05-04T20:03:21.461Z,13.28
2023-05-04T20:06:46.601Z,13.24
2023-05-04T20:10:11.769Z,13.23
2023-05-04T20:13:37.012Z,13.24
2023-05-04T20:17:02.276Z,13.28
2023-05-04T20:20:27.369Z,13.33
2023-05-04T20:23:52.569Z,13.35
2023-05-04T20:27:17.780Z,13.37
2023-05-04T20:30:42.977Z,13.34
2023-05-04T20:34:08.152Z,13.34
2023-05-04T20:37:33.371Z,13.29
2023-05-04T20:40:58.564Z,13.18
2023-05-04T20:44:23.761Z,13.08
2023-05-04T20:47:48.989Z,12.98
2023-05-04T20:51:15.326Z,12.92
2023-05-04T20:54:39.369Z,12.87
2023-05-04T20:58:04.572Z,12.85
2023-05-04T21:01:29.791Z,12.86
2023-05-04T21:04:54.986Z,12.89
2023-05-04T21:08:20.144Z,12.92
2023-05-04T21:11:45.338Z,13
2023-05-04T21:15:10.517Z,13.09
2023-05-04T21:18:35.723Z,13.16
2023-05-04T21:22:00.930Z,13.2
2023-05-04T21:25:26.082Z,13.27
2023-05-04T21:28:51.252Z,13.3
2023-05-04T21:32:16.449Z,13.32
2023-05-04T21:35:41.658Z,13.34
2023-05-04T21:39:06.883Z,13.35
2023-05-04T21:42:32.055Z,13.35
2023-05-04T21:45:57.265Z,13.31
2023-05-04T21:49:22.469Z,13.27
2023-05-04T21:52:47.678Z,13.24
2023-05-04T21:56:12.871Z,13.22
2023-05-04T21:59:38.032Z,13.2
2023-05-04T22:03:03.284Z,13.15
2023-05-04T22:06:28.408Z,13.11
2023-05-04T22:09:53.599Z,13.07
2023-05-04T22:13:18.800Z,13.01
2023-05-04T22:16:43.992Z,12.95
2023-05-04T22:20:09.280Z,12.9
2023-05-04T22:23:34.370Z,12.86
2023-05-04T22:26:59.556Z,12.83
2023-05-04T22:30:24.750Z,12.76
2023-05-04T22:33:49.949Z,12.73
2023-05-04T22:37:15.153Z,12.68
2023-05-04T22:40:40.675Z,12.6
2023-05-04T22:44:05.561Z,12.53
2023-05-04T22:47:30.768Z,12.5
2023-05-04T22:50:55.900Z,12.48
2023-05-04T22:54:21.100Z,12.46
2023-05-04T22:57:46.292Z,12.42
2023-05-04T23:01:11.560Z,12.42
2023-05-04T23:04:36.726Z,12.4
2023-05-04T23:08:01.919Z,12.37
2023-05-04T23:11:27.150Z,12.38
2023-05-04T23:14:52.378Z,12.38
2023-05-04T23:18:17.497Z,12.36
2023-05-04T23:21:42.721Z,12.36
2023-05-04T23:25:07.893Z,12.34
2023-05-04T23:28:33.102Z,12.35
2023-05-04T23:31:58.278Z,12.35
2023-05-04T23:35:23.458Z,12.35
2023-05-04T23:38:48.643Z,12.36
2023-05-04T23:42:13.782Z,12.37
2023-05-04T23:45:38.980Z,12.35
2023-05-04T23:49:04.163Z,12.36
2023-05-04T23:52:29.393Z,12.37
2023-05-04T23:55:54.586Z,12.36
2023-05-04T23:59:19.772Z,12.36
